Time;durP1;ratioP1;P1;durP2;ratioP2;P2;SDS_P1;SDS_P2;PMS_P1;PMS_P2;Temp;Humidity;BMP_temperature;BMP_pressure;BME280_temperature;BME280_humidity;BME280_pressure;Samples;Min_cycle;Max_cycle;Signal;HPM_P1;HPM_P2
2022/08/10 00:00:19;;;;;;;8.55;4.32;;;17.60;99.90;;;;;;5112210;28;20051;-64
2022/08/10 00:02:12;;;;;;;6.80;4.32;;;17.60;99.90;;;;;;5112981;28;20059;-64
2022/08/10 00:04:38;;;;;;;6.68;3.85;;;17.60;99.90;;;;;;5111936;28;20052;-65
2022/08/10 00:07:05;;;;;;;6.28;4.28;;;17.60;99.90;;;;;;5111942;28;20063;-64
2022/08/10 00:09:32;;;;;;;6.60;4.40;;;17.60;99.90;;;;;;5112019;28;20048;-64
2022/08/10 00:12:18;;;;;;;9.00;4.68;;;17.50;99.90;;;;;;5111895;28;20047;-64
2022/08/10 00:14:45;;;;;;;7.60;4.53;;;17.50;99.90;;;;;;5095319;28;20131;-64
2022/08/10 00:17:12;;;;;;;6.43;4.35;;;17.50;99.90;;;;;;5112836;28;20047;-64
2022/08/10 00:19:39;;;;;;;11.43;4.43;;;17.50;99.90;;;;;;5094268;28;20483;-64
2022/08/10 00:22:26;;;;;;;7.72;4.68;;;17.50;99.90;;;;;;5097624;28;20490;-64
2022/08/10 00:24:56;;;;;;;7.50;4.13;;;17.40;99.90;;;;;;5111191;28;20058;-64
2022/08/10 00:27:23;;;;;;;6.22;4.20;;;17.40;99.90;;;;;;5095061;28;20055;-64
2022/08/10 00:30:12;;;;;;;8.77;4.53;;;17.40;99.90;;;;;;5111451;28;20469;-64
2022/08/10 00:32:39;;;;;;;9.07;4.18;;;17.40;99.90;;;;;;5112440;28;20048;-64
2022/08/10 00:35:06;;;;;;;9.15;4.45;;;17.40;99.90;;;;;;5094767;28;20390;-65
2022/08/10 00:37:33;;;;;;;7.32;4.22;;;17.40;99.90;;;;;;5094517;28;20053;-64
2022/08/10 00:40:00;;;;;;;9.57;5.07;;;17.40;99.90;;;;;;5112325;28;20058;-65
2022/08/10 00:42:27;;;;;;;9.07;4.60;;;17.40;99.90;;;;;;5112467;28;20097;-64
2022/08/10 00:44:54;;;;;;;6.63;3.88;;;17.30;99.90;;;;;;5112795;28;20403;-64
2022/08/10 00:47:21;;;;;;;6.45;4.03;;;17.30;99.90;;;;;;5111244;28;20364;-64
2022/08/10 00:50:04;;;;;;;7.28;4.65;;;17.30;99.90;;;;;;5096870;28;20047;-64
2022/08/10 00:52:31;;;;;;;6.63;3.92;;;17.30;99.90;;;;;;5110957;28;20059;-64
2022/08/10 00:54:58;;;;;;;9.02;4.47;;;17.20;99.90;;;;;;5111018;28;20143;-64
2022/08/10 00:57:25;;;;;;;8.88;4.20;;;17.20;99.90;;;;;;5093982;28;20052;-64
2022/08/10 00:59:52;;;;;;;7.45;4.13;;;17.10;99.90;;;;;;5100056;28;20051;-64
2022/08/10 01:02:26;;;;;;;7.20;4.95;;;17.10;99.90;;;;;;5111035;28;20874;-64
2022/08/10 01:04:53;;;;;;;14.95;4.82;;;17.00;99.90;;;;;;5111363;28;20043;-64
2022/08/10 01:07:55;;;;;;;4.65;3.97;;;17.00;99.90;;;;;;5096517;28;20052;-64
2022/08/10 01:10:37;;;;;;;6.53;4.20;;;16.90;99.90;;;;;;5116305;28;20050;-64
2022/08/10 01:13:30;;;;;;;6.13;3.95;;;16.80;99.90;;;;;;5115556;28;20074;-64
2022/08/10 01:16:36;;;;;;;9.35;4.05;;;16.70;99.90;;;;;;5082541;28;20162;-63
2022/08/10 01:19:29;;;;;;;7.30;4.30;;;16.60;99.90;;;;;;5073795;28;20509;-66
2022/08/10 01:22:25;;;;;;;8.38;4.20;;;16.50;99.90;;;;;;5094874;28;20044;-64
2022/08/10 01:25:16;;;;;;;6.28;3.95;;;16.50;99.90;;;;;;5098248;28;20118;-64
2022/08/10 01:28:42;;;;;;;12.15;4.93;;;16.40;99.90;;;;;;5097600;28;20043;-64
2022/08/10 01:31:11;;;;;;;8.10;4.65;;;16.30;99.90;;;;;;5057177;28;20054;-64
2022/08/10 01:33:44;;;;;;;;;;;16.20;99.90;;;;;;5094726;28;20048;-65
2022/08/10 01:36:30;;;;;;;5.47;4.13;;;16.20;99.90;;;;;;5080309;28;20278;-64
2022/08/10 01:39:00;;;;;;;5.50;4.05;;;16.10;99.90;;;;;;5077547;28;20126;-64
2022/08/10 01:41:47;;;;;;;6.55;4.28;;;16.00;99.90;;;;;;5077304;28;20055;-64
2022/08/10 01:44:17;;;;;;;8.40;4.75;;;16.10;99.90;;;;;;5093995;28;20044;-63
2022/08/10 01:46:47;;;;;;;7.28;4.55;;;16.00;99.90;;;;;;5093992;28;20113;-64
2022/08/10 01:49:18;;;;;;;7.18;4.57;;;15.90;99.90;;;;;;5113243;28;20079;-64
2022/08/10 01:51:49;;;;;;;7.88;5.20;;;15.90;99.90;;;;;;5114052;28;20056;-65
2022/08/10 01:54:21;;;;;;;8.48;4.70;;;15.90;99.90;;;;;;5097612;28;20052;-64
2022/08/10 01:56:49;;;;;;;9.43;4.70;;;15.80;99.90;;;;;;5114047;28;20504;-64
2022/08/10 01:59:25;;;;;;;8.18;4.32;;;15.80;99.90;;;;;;5114262;28;20047;-64
2022/08/10 02:01:54;;;;;;;11.73;4.53;;;15.80;99.90;;;;;;5115270;28;20047;-64
2022/08/10 02:04:21;;;;;;;6.93;4.43;;;15.70;99.90;;;;;;5114949;28;20441;-63
2022/08/10 02:06:49;;;;;;;12.43;5.57;;;15.70;99.90;;;;;;5114084;28;20462;-69
2022/08/10 02:09:27;;;;;;;7.72;4.70;;;15.60;99.90;;;;;;5097158;28;20093;-63
2022/08/10 02:11:56;;;;;;;6.43;4.53;;;15.60;99.90;;;;;;5096858;28;20123;-63
2022/08/10 02:15:01;;;;;;;6.13;4.70;;;15.60;99.90;;;;;;5114395;28;20047;-64
2022/08/10 02:17:53;;;;;;;7.45;4.28;;;15.60;99.90;;;;;;5109938;28;20070;-69
2022/08/10 02:20:42;;;;;;;6.53;4.07;;;15.50;99.90;;;;;;5113991;28;20048;-64
2022/08/10 02:23:12;;;;;;;7.60;4.75;;;15.50;99.90;;;;;;5113485;28;20055;-66
2022/08/10 02:25:38;;;;;;;5.28;4.32;;;15.50;99.90;;;;;;5113916;28;20039;-64
2022/08/10 02:28:14;;;;;;;7.45;4.45;;;15.50;99.90;;;;;;5113436;28;20089;-64
2022/08/10 02:31:03;;;;;;;9.40;4.75;;;15.50;99.90;;;;;;5094409;28;20134;-65
2022/08/10 02:33:33;;;;;;;9.40;5.53;;;15.40;99.90;;;;;;5093213;28;20450;-64
2022/08/10 02:36:04;;;;;;;6.45;4.63;;;15.40;99.90;;;;;;5077046;28;20044;-63
2022/08/10 02:38:34;;;;;;;9.35;5.30;;;15.40;99.90;;;;;;5092824;28;20048;-63
2022/08/10 02:41:44;;;;;;;8.43;6.63;;;15.30;99.90;;;;;;5093229;28;20070;-64
2022/08/10 02:44:57;;;;;;;6.05;4.25;;;15.30;99.90;;;;;;5094497;28;20449;-64
2022/08/10 02:47:45;;;;;;;8.73;4.32;;;15.20;99.90;;;;;;5099595;28;20437;-64
2022/08/10 02:50:24;;;;;;;9.77;4.60;;;15.20;99.90;;;;;;5097075;28;20483;-64
2022/08/10 02:53:12;;;;;;;7.78;4.47;;;15.20;99.90;;;;;;5114377;28;20060;-66
2022/08/10 02:56:04;;;;;;;5.37;4.83;;;15.20;99.90;;;;;;5113990;28;20051;-64
2022/08/10 02:58:36;;;;;;;10.40;4.85;;;15.20;99.90;;;;;;5112915;28;20329;-64
2022/08/10 03:01:04;;;;;;;7.55;4.80;;;15.20;99.90;;;;;;5096917;28;20051;-63
2022/08/10 03:03:34;;;;;;;5.00;3.75;;;15.10;99.90;;;;;;5096192;28;20070;-64
2022/08/10 03:06:04;;;;;;;5.75;4.15;;;15.10;99.90;;;;;;5096654;28;20054;-64
2022/08/10 03:08:38;;;;;;;8.15;5.57;;;15.00;99.90;;;;;;5080224;28;20044;-64
2022/08/10 03:11:05;;;;;;;11.23;4.93;;;15.00;99.90;;;;;;5096032;28;20051;-64
2022/08/10 03:13:32;;;;;;;7.80;4.85;;;15.00;99.90;;;;;;5111860;28;20043;-63
2022/08/10 03:16:00;;;;;;;9.75;5.03;;;15.00;99.90;;;;;;5095909;28;20066;-64
2022/08/10 03:18:27;;;;;;;8.13;4.30;;;15.00;99.90;;;;;;5113620;28;20402;-64
2022/08/10 03:20:54;;;;;;;9.77;4.60;;;14.90;99.90;;;;;;5112748;28;20048;-64
2022/08/10 03:23:22;;;;;;;7.05;4.78;;;14.90;99.90;;;;;;5101124;28;20067;-63
2022/08/10 03:25:52;;;;;;;7.90;4.63;;;14.90;99.90;;;;;;5075670;28;20157;-65
2022/08/10 03:28:21;;;;;;;7.60;5.45;;;14.90;99.90;;;;;;5103164;28;20048;-64
2022/08/10 03:30:48;;;;;;;6.15;4.43;;;14.80;99.90;;;;;;5057927;28;20048;-64
2022/08/10 03:33:15;;;;;;;9.38;4.57;;;14.80;99.90;;;;;;5077829;28;20052;-64
2022/08/10 03:35:42;;;;;;;6.57;4.88;;;14.70;99.90;;;;;;5110899;28;20487;-63
2022/08/10 03:38:29;;;;;;;9.02;4.30;;;14.70;99.90;;;;;;5092254;28;20109;-64
2022/08/10 03:40:56;;;;;;;7.60;4.00;;;14.70;99.90;;;;;;5093297;28;20079;-64
2022/08/10 03:43:23;;;;;;;8.32;5.18;;;14.70;99.90;;;;;;5074895;28;20051;-65
2022/08/10 03:45:54;;;;;;;7.10;4.57;;;14.70;99.90;;;;;;5075296;28;20059;-64
2022/08/10 03:48:26;;;;;;;5.47;4.25;;;14.70;99.90;;;;;;5086814;28;20244;-64
2022/08/10 03:51:13;;;;;;;6.28;4.30;;;14.70;99.90;;;;;;5112467;28;20051;-65
2022/08/10 03:53:40;;;;;;;6.57;4.43;;;14.60;99.90;;;;;;5112183;28;20479;-63
2022/08/10 03:56:27;;;;;;;7.32;4.70;;;14.60;99.90;;;;;;5113294;28;20047;-63
2022/08/10 03:58:58;;;;;;;8.80;4.70;;;14.60;99.90;;;;;;5111808;28;20403;-64
2022/08/10 04:01:26;;;;;;;8.02;4.78;;;14.50;99.90;;;;;;5095098;28;20068;-63
2022/08/10 04:04:13;;;;;;;8.98;5.95;;;14.50;99.90;;;;;;5098368;28;20406;-64
2022/08/10 04:06:52;;;;;;;6.93;4.53;;;14.50;99.90;;;;;;5112655;28;20047;-64
2022/08/10 04:09:24;;;;;;;7.05;4.20;;;14.50;99.90;;;;;;5095661;28;20044;-63
2022/08/10 04:12:10;;;;;;;8.43;5.57;;;14.40;99.90;;;;;;5111520;28;20039;-63
2022/08/10 04:14:37;;;;;;;5.93;4.13;;;14.40;99.90;;;;;;5111989;28;20414;-64
2022/08/10 04:17:17;;;;;;;11.18;4.85;;;14.40;99.90;;;;;;5111852;28;20088;-64
2022/08/10 04:20:05;;;;;;;9.27;4.95;;;14.40;99.90;;;;;;5113104;28;20051;-64
2022/08/10 04:22:32;;;;;;;7.32;4.90;;;14.40;99.90;;;;;;5094549;28;20052;-63
2022/08/10 04:25:01;;;;;;;7.88;5.53;;;14.40;99.90;;;;;;5094873;28;20081;-64
2022/08/10 04:27:28;;;;;;;9.18;4.78;;;14.30;99.90;;;;;;5094120;28;20055;-65
2022/08/10 04:29:55;;;;;;;8.32;4.60;;;14.30;99.90;;;;;;5111463;28;20055;-64
2022/08/10 04:32:22;;;;;;;7.57;5.07;;;14.30;99.90;;;;;;5111460;28;20048;-63
2022/08/10 04:34:50;;;;;;;8.50;4.97;;;14.30;99.90;;;;;;5111404;28;20147;-64
2022/08/10 04:37:17;;;;;;;8.52;5.07;;;14.30;99.90;;;;;;5094968;28;20047;-63
2022/08/10 04:39:44;;;;;;;10.00;5.32;;;14.30;99.90;;;;;;5078246;28;20054;-64
2022/08/10 04:42:11;;;;;;;10.70;4.65;;;14.30;99.90;;;;;;5111549;28;20502;-63
2022/08/10 04:44:38;;;;;;;7.10;4.53;;;14.30;99.90;;;;;;5099106;28;20047;-64
2022/08/10 04:47:05;;;;;;;10.35;4.90;;;14.30;99.90;;;;;;5098767;28;20055;-64
2022/08/10 04:49:33;;;;;;;8.30;5.03;;;14.30;99.90;;;;;;5115598;28;20043;-64
2022/08/10 04:52:20;;;;;;;6.07;4.97;;;14.30;99.90;;;;;;5101541;28;20059;-63
2022/08/10 04:54:50;;;;;;;9.52;4.93;;;14.30;99.90;;;;;;5116664;28;20052;-67
2022/08/10 04:57:18;;;;;;;6.72;5.45;;;14.30;99.90;;;;;;5115188;28;20199;-63
2022/08/10 04:59:45;;;;;;;8.18;4.72;;;14.30;99.90;;;;;;5115432;28;20047;-63
2022/08/10 05:02:12;;;;;;;6.70;5.20;;;14.30;99.90;;;;;;5116480;27;20079;-65
2022/08/10 05:04:57;;;;;;;8.73;4.70;;;14.40;99.90;;;;;;5115343;28;20097;-64
2022/08/10 05:07:24;;;;;;;6.95;4.78;;;14.40;99.90;;;;;;5116182;27;20063;-64
2022/08/10 05:09:53;;;;;;;11.02;5.63;;;14.40;99.90;;;;;;5116096;28;20044;-63
2022/08/10 05:12:34;;;;;;;11.30;4.72;;;14.50;99.90;;;;;;5112746;28;20551;-64
2022/08/10 05:15:07;;;;;;;7.40;4.97;;;14.60;99.90;;;;;;5115321;28;20411;-63
2022/08/10 05:17:34;;;;;;;8.70;4.57;;;14.60;99.90;;;;;;5097960;28;20121;-64
2022/08/10 05:20:03;;;;;;;9.25;5.07;;;14.80;99.90;;;;;;5114764;28;20052;-65
2022/08/10 05:22:37;;;;;;;7.32;4.50;;;14.90;99.90;;;;;;5114795;28;20051;-64
2022/08/10 05:25:07;;;;;;;7.82;5.15;;;15.00;99.90;;;;;;5115802;28;20039;-63
2022/08/10 05:27:34;;;;;;;7.80;4.75;;;15.10;99.90;;;;;;5114652;28;20043;-64
2022/08/10 05:30:01;;;;;;;8.90;4.68;;;15.20;99.90;;;;;;5114912;28;20047;-64
2022/08/10 05:32:33;;;;;;;6.77;5.60;;;15.30;99.90;;;;;;5080485;28;20048;-64
2022/08/10 05:35:20;;;;;;;7.18;5.18;;;15.40;99.90;;;;;;5115249;28;20116;-63
2022/08/10 05:37:47;;;;;;;7.38;4.85;;;15.60;99.90;;;;;;5114753;28;20055;-66
2022/08/10 05:40:34;;;;;;;10.63;5.30;;;15.70;99.90;;;;;;5115252;28;20101;-64
2022/08/10 05:43:01;;;;;;;9.10;5.25;;;15.80;99.90;;;;;;5114168;28;20051;-64
2022/08/10 05:45:28;;;;;;;8.45;5.78;;;15.90;99.90;;;;;;5114379;28;20059;-64
2022/08/10 05:47:55;;;;;;;9.95;5.70;;;16.00;99.90;;;;;;5115208;28;20086;-63
2022/08/10 05:50:42;;;;;;;12.30;7.10;;;16.20;99.90;;;;;;5114385;28;20456;-64
2022/08/10 05:53:09;;;;;;;8.55;5.90;;;16.30;99.90;;;;;;5113711;28;20071;-63
2022/08/10 05:55:56;;;;;;;10.32;6.57;;;16.50;99.90;;;;;;5100015;28;20039;-63
2022/08/10 05:58:23;;;;;;;18.48;8.48;;;16.60;99.90;;;;;;5095415;28;20063;-64
2022/08/10 06:00:53;;;;;;;10.60;8.00;;;16.80;99.90;;;;;;5080611;28;20051;-64
2022/08/10 06:03:26;;;;;;;13.63;7.95;;;16.90;99.90;;;;;;5113865;28;20062;-64
2022/08/10 06:05:54;;;;;;;13.18;7.57;;;17.00;99.90;;;;;;5114347;28;20058;-64
2022/08/10 06:08:23;;;;;;;13.63;7.93;;;17.20;99.90;;;;;;5097401;28;20052;-64
2022/08/10 06:10:53;;;;;;;12.18;6.70;;;17.30;99.90;;;;;;5114009;28;20047;-64
2022/08/10 06:16:40;;;;;;;10.40;7.38;;;17.60;99.90;;;;;;5113983;28;20494;-64
2022/08/10 06:19:07;;;;;;;11.40;6.68;;;17.70;99.90;;;;;;5097153;28;20096;-64
2022/08/10 06:21:34;;;;;;;11.90;7.32;;;17.80;99.90;;;;;;5114169;28;20136;-64
2022/08/10 06:24:01;;;;;;;11.73;6.20;;;17.90;99.90;;;;;;5114191;28;20055;-64
2022/08/10 06:26:28;;;;;;;15.35;6.68;;;18.00;99.90;;;;;;5113505;28;20051;-64
2022/08/10 06:29:06;;;;;;;12.18;6.57;;;18.10;99.90;;;;;;5114259;28;20438;-64
2022/08/10 06:31:36;;;;;;;13.75;8.63;;;18.20;99.90;;;;;;5097228;28;20055;-64
2022/08/10 06:34:23;;;;;;;15.68;8.48;;;18.20;99.90;;;;;;5098776;28;20043;-64
2022/08/10 06:36:51;;;;;;;15.30;10.13;;;18.30;99.90;;;;;;5097422;28;20478;-64
2022/08/10 06:39:19;;;;;;;18.02;10.07;;;18.40;99.90;;;;;;5113624;28;20055;-64
2022/08/10 06:42:09;;;;;;;11.02;8.00;;;18.30;99.90;;;;;;5098311;28;20110;-64
2022/08/10 06:44:51;;;;;;;9.85;7.82;;;18.40;99.90;;;;;;5098130;28;20450;-64
2022/08/10 06:47:18;;;;;;;14.07;8.45;;;18.40;99.90;;;;;;5113490;28;20051;-64
2022/08/10 06:49:49;;;;;;;9.68;7.13;;;18.50;99.90;;;;;;5112771;28;20082;-64
2022/08/10 06:52:16;;;;;;;11.15;7.18;;;18.50;99.90;;;;;;5113256;28;20055;-64
2022/08/10 06:54:44;;;;;;;10.63;6.97;;;18.60;99.90;;;;;;5096525;28;20047;-65
2022/08/10 06:57:11;;;;;;;13.45;6.95;;;18.70;99.90;;;;;;5112414;28;20471;-64
2022/08/10 06:59:45;;;;;;;12.30;6.70;;;18.90;99.90;;;;;;5112845;28;20043;-64
2022/08/10 07:02:39;;;;;;;12.30;7.53;;;19.10;99.90;;;;;;5096259;28;20055;-64
2022/08/10 07:05:07;;;;;;;10.95;6.00;;;19.30;99.90;;;;;;5088341;28;20055;-69
2022/08/10 07:07:35;;;;;;;10.45;6.40;;;19.50;99.90;;;;;;5079329;28;20044;-65
2022/08/10 07:10:02;;;;;;;9.55;6.97;;;19.60;99.90;;;;;;5095765;28;20455;-64
2022/08/10 07:12:30;;;;;;;11.60;6.05;;;19.80;99.90;;;;;;5113646;28;20040;-64
2022/08/10 07:14:57;;;;;;;14.75;6.22;;;19.90;99.90;;;;;;5095653;28;20050;-64
2022/08/10 07:17:24;;;;;;;10.05;6.00;;;20.00;99.90;;;;;;5095782;28;20055;-64
2022/08/10 07:19:53;;;;;;;10.90;5.65;;;20.00;99.90;;;;;;5112382;28;20044;-64
2022/08/10 07:22:21;;;;;;;;;;;20.10;99.90;;;;;;5109571;28;20047;-64
2022/08/10 07:25:08;;;;;;;13.45;5.70;;;20.00;99.90;;;;;;5112715;28;19955;-64
2022/08/10 07:27:35;;;;;;;8.68;6.28;;;19.90;99.90;;;;;;5111666;28;20054;-65
2022/08/10 07:30:22;;;;;;;19.50;8.23;;;19.80;99.90;;;;;;5112335;28;20075;-64
2022/08/10 07:32:49;;;;;;;11.15;6.65;;;19.70;99.90;;;;;;5111969;28;20082;-64
2022/08/10 07:35:17;;;;;;;8.82;6.68;;;19.80;99.90;;;;;;5095510;28;20407;-64
2022/08/10 07:37:48;;;;;;;8.90;6.15;;;19.90;99.90;;;;;;5112570;28;20043;-64
2022/08/10 07:40:16;;;;;;;12.25;6.60;;;20.00;99.90;;;;;;5113504;28;20044;-64
2022/08/10 07:42:44;;;;;;;12.45;5.43;;;20.00;99.90;;;;;;5095081;28;20087;-65
2022/08/10 07:45:12;;;;;;;9.13;5.40;;;20.00;99.90;;;;;;5095351;28;20051;-64
2022/08/10 07:47:45;;;;;;;12.50;6.88;;;20.10;99.90;;;;;;5078589;28;20043;-64
2022/08/10 07:50:20;;;;;;;8.90;5.80;;;20.10;99.90;;;;;;5112101;28;20051;-64
2022/08/10 07:52:47;;;;;;;8.00;5.53;;;20.20;99.90;;;;;;5095114;28;20055;-64
2022/08/10 07:55:15;;;;;;;10.75;6.03;;;20.20;99.90;;;;;;5112637;28;20059;-65
2022/08/10 07:57:43;;;;;;;11.07;5.20;;;20.30;99.90;;;;;;5111555;28;20414;-65
2022/08/10 08:00:10;;;;;;;17.17;5.80;;;20.40;99.90;;;;;;5111778;28;20480;-65
2022/08/10 08:02:47;;;;;;;8.27;5.05;;;20.40;99.90;;;;;;5113191;28;20047;-64
2022/08/10 08:05:14;;;;;;;10.70;5.50;;;20.50;99.90;;;;;;5078698;28;20096;-64
2022/08/10 08:08:01;;;;;;;10.43;4.88;;;20.60;99.90;;;;;;5098496;28;20043;-64
2022/08/10 08:10:28;;;;;;;11.35;4.47;;;20.60;99.90;;;;;;5094996;28;20150;-64
2022/08/10 08:12:56;;;;;;;10.25;4.78;;;20.70;99.90;;;;;;5112718;28;20067;-64
2022/08/10 08:15:24;;;;;;;11.50;5.00;;;20.80;99.90;;;;;;5111869;28;20051;-64
2022/08/10 08:18:11;;;;;;;16.25;4.78;;;20.90;99.90;;;;;;5083449;28;20441;-64
2022/08/10 08:20:38;;;;;;;7.50;4.40;;;20.80;99.90;;;;;;5111773;28;20044;-65
2022/08/10 08:23:06;;;;;;;7.90;4.75;;;20.90;99.90;;;;;;5111421;28;20086;-65
2022/08/10 08:25:53;;;;;;;10.95;5.47;;;20.90;99.90;;;;;;5111735;28;20491;-64
2022/08/10 08:28:20;;;;;;;18.38;5.50;;;21.00;99.90;;;;;;5110948;28;20494;-64
2022/08/10 08:30:47;;;;;;;9.45;5.25;;;21.10;99.90;;;;;;5091517;28;20056;-65
2022/08/10 08:33:15;;;;;;;11.90;5.03;;;21.10;99.90;;;;;;5107840;28;20102;-65
2022/08/10 08:36:02;;;;;;;12.55;5.57;;;21.20;99.90;;;;;;5105708;28;20051;-64
2022/08/10 08:38:29;;;;;;;10.15;4.88;;;21.20;99.90;;;;;;5090708;28;20044;-64
2022/08/10 08:41:23;;;;;;;9.48;4.93;;;21.30;99.90;;;;;;5091163;28;20044;-65
2022/08/10 08:44:08;;;;;;;9.07;5.07;;;21.30;99.90;;;;;;5106081;28;20055;-64
2022/08/10 08:46:51;;;;;;;13.85;5.00;;;21.40;99.90;;;;;;5107742;28;20052;-64
2022/08/10 08:49:46;;;;;;;9.02;4.65;;;21.40;99.90;;;;;;5092250;28;20967;-65
2022/08/10 08:52:45;;;;;;;14.43;4.60;;;21.40;99.90;;;;;;5090789;28;20065;-65
2022/08/10 08:55:18;;;;;;;;;;;21.50;99.90;;;;;;5092424;28;20055;-64
2022/08/10 08:58:26;;;;;;;12.68;3.72;;;21.60;99.90;;;;;;5100056;28;20147;-69
2022/08/10 09:01:31;;;;;;;9.20;3.92;;;21.70;99.90;;;;;;5112050;28;20052;-64
2022/08/10 09:04:16;;;;;;;10.60;3.85;;;21.70;99.90;;;;;;5112242;28;20051;-64
2022/08/10 09:07:15;;;;;;;19.20;5.20;;;21.70;99.90;;;;;;5095171;28;20056;-64
2022/08/10 09:10:10;;;;;;;11.98;4.32;;;21.80;99.90;;;;;;5112334;28;20055;-64
2022/08/10 09:13:25;;;;;;;8.23;4.03;;;21.90;99.90;;;;;;5111038;28;20440;-64
2022/08/10 09:16:26;;;;;;;7.95;4.13;;;22.00;99.90;;;;;;5069678;28;20411;-64
2022/08/10 09:19:05;;;;;;;9.60;4.03;;;22.10;99.90;;;;;;5101904;28;20052;-64
2022/08/10 09:21:38;;;;;;;10.45;3.88;;;22.10;99.90;;;;;;5076475;28;20056;-65
2022/08/10 09:24:51;;;;;;;8.63;3.40;;;22.20;99.90;;;;;;5100652;28;20513;-64
2022/08/10 09:27:23;;;;;;;8.40;3.58;;;22.30;99.90;;;;;;5110753;28;20073;-64
2022/08/10 09:29:59;;;;;;;16.42;4.55;;;22.40;99.90;;;;;;5113982;28;20048;-65
2022/08/10 09:32:41;;;;;;;10.10;3.42;;;22.40;99.90;;;;;;5081788;28;20054;-64
2022/08/10 09:35:52;;;;;;;11.98;3.45;;;22.40;99.90;;;;;;5114558;28;20567;-65
2022/08/10 09:39:02;;;;;;;7.38;2.92;;;22.50;99.90;;;;;;5101379;28;20105;-66
2022/08/10 09:42:17;;;;;;;10.50;2.75;;;22.60;99.90;;;;;;5114877;28;20073;-65
2022/08/10 09:44:55;;;;;;;11.05;2.80;;;22.70;99.90;;;;;;5106262;28;20085;-65
2022/08/10 09:47:52;;;;;;;24.23;3.63;;;22.80;99.90;;;;;;5081644;28;20064;-65
2022/08/10 09:50:55;;;;;;;11.98;3.10;;;23.00;99.90;;;;;;5115348;28;20051;-64
2022/08/10 09:54:16;;;;;;;8.75;2.80;;;23.10;99.90;;;;;;5100176;28;20092;-65
2022/08/10 09:56:59;;;;;;;17.42;3.67;;;23.20;99.90;;;;;;5114680;28;20043;-64
2022/08/10 10:00:19;;;;;;;15.82;4.63;;;23.30;99.90;;;;;;5115594;28;20047;-65
2022/08/10 10:03:01;;;;;;;14.00;3.08;;;23.30;99.90;;;;;;5099825;28;20062;-65
2022/08/10 10:05:57;;;;;;;9.80;3.08;;;23.40;99.90;;;;;;5097678;28;20449;-64
2022/08/10 10:08:33;;;;;;;8.93;3.20;;;23.40;99.90;;;;;;5042883;28;20508;-64
2022/08/10 10:11:32;;;;;;;6.03;2.58;;;23.50;99.90;;;;;;5115381;28;20087;-66
2022/08/10 10:14:07;;;;;;;7.18;2.60;;;23.60;99.90;;;;;;5098514;28;20479;-64
2022/08/10 10:17:01;;;;;;;9.30;3.00;;;23.60;99.90;;;;;;5098359;28;20051;-64
2022/08/10 10:19:43;;;;;;;13.65;3.92;;;23.80;99.90;;;;;;5094207;28;20451;-64
2022/08/10 10:22:42;;;;;;;8.10;3.30;;;23.90;99.90;;;;;;5093246;28;20048;-64
2022/08/10 10:25:22;;;;;;;6.32;2.22;;;24.00;99.90;;;;;;5093367;28;20121;-65
2022/08/10 10:28:33;;;;;;;6.70;2.30;;;23.90;99.90;;;;;;5101978;28;20512;-65
2022/08/10 10:31:40;;;;;;;7.95;2.78;;;24.00;99.90;;;;;;5113563;28;20093;-65
2022/08/10 10:34:22;;;;;;;9.23;2.67;;;24.10;99.90;;;;;;5072606;28;20048;-64
2022/08/10 10:36:50;;;;;;;4.57;2.10;;;24.10;99.90;;;;;;5114774;28;20055;-65
2022/08/10 10:39:18;;;;;;;5.00;2.13;;;24.20;99.90;;;;;;5113805;28;20378;-64
2022/08/10 10:42:07;;;;;;;5.93;2.15;;;24.20;99.90;;;;;;5113287;28;20134;-65
2022/08/10 10:45:04;;;;;;;8.98;2.60;;;24.30;99.90;;;;;;5113693;28;20047;-64
2022/08/10 10:47:57;;;;;;;7.60;2.97;;;24.40;99.90;;;;;;5096805;28;20039;-64
2022/08/10 10:50:52;;;;;;;6.78;2.30;;;24.50;99.90;;;;;;5114356;28;20489;-71
2022/08/10 10:53:31;;;;;;;10.13;2.42;;;24.50;99.90;;;;;;5098678;28;20054;-64
2022/08/10 10:56:17;;;;;;;4.60;2.28;;;24.70;99.90;;;;;;5114146;28;20399;-65
2022/08/10 10:59:32;;;;;;;4.20;2.22;;;24.70;99.90;;;;;;5112851;28;20051;-70
2022/08/10 11:02:53;;;;;;;5.97;1.77;;;24.70;99.90;;;;;;5093916;28;20083;-66
2022/08/10 11:05:35;;;;;;;3.45;1.70;;;24.80;99.90;;;;;;5096156;28;20051;-65
2022/08/10 11:08:17;;;;;;;10.20;2.17;;;24.80;99.90;;;;;;5113419;28;20048;-64
2022/08/10 11:10:59;;;;;;;7.35;2.33;;;24.90;99.90;;;;;;5092961;28;20044;-71
2022/08/10 11:14:04;;;;;;;5.68;2.10;;;25.00;99.90;;;;;;5101138;28;20040;-65
2022/08/10 11:17:00;;;;;;;3.70;1.70;;;25.10;99.90;;;;;;5092944;28;20044;-64
2022/08/10 11:19:33;;;;;;;6.82;2.08;;;25.20;99.90;;;;;;5077262;28;20046;-65
2022/08/10 11:22:31;;;;;;;7.85;2.42;;;25.30;99.90;;;;;;5086150;28;20070;-64
2022/08/10 11:25:26;;;;;;;7.03;2.38;;;25.50;99.90;;;;;;5095791;28;20077;-64
2022/08/10 11:28:21;;;;;;;5.18;1.60;;;25.60;99.90;;;;;;5098008;28;20122;-65
2022/08/10 11:30:54;;;;;;;5.05;2.15;;;25.70;99.90;;;;;;5092182;28;20048;-64
2022/08/10 11:33:41;;;;;;;5.25;1.73;;;25.70;99.90;;;;;;5091645;28;20040;-64
2022/08/10 11:36:40;;;;;;;9.50;2.17;;;25.80;99.90;;;;;;5092282;28;20044;-65
2022/08/10 11:39:08;;;;;;;4.00;1.60;;;25.80;99.90;;;;;;5093204;28;20074;-67
2022/08/10 11:41:44;;;;;;;4.72;1.73;;;25.90;99.90;;;;;;5075988;28;20052;-64
2022/08/10 11:44:52;;;;;;;3.72;1.83;;;26.00;98.70;;;;;;5091989;28;20051;-64
2022/08/10 11:47:30;;;;;;;5.72;2.22;;;26.00;98.30;;;;;;5094751;28;20070;-65
2022/08/10 11:50:24;;;;;;;4.15;1.83;;;26.00;96.50;;;;;;5112079;28;20368;-65
2022/08/10 11:53:23;;;;;;;4.85;1.95;;;26.00;97.40;;;;;;5096848;28;20070;-66
2022/08/10 11:55:57;;;;;;;;;;;26.00;97.40;;;;;;5112044;28;20050;-65
2022/08/10 12:01:19;;;;;;;5.75;1.48;;;26.00;94.60;;;;;;5098366;28;20134;-65
2022/08/10 12:03:46;;;;;;;3.72;1.40;;;26.20;93.30;;;;;;5111399;28;20051;-65
2022/08/10 12:06:15;;;;;;;3.85;1.40;;;26.30;93.10;;;;;;5111628;28;20043;-65
2022/08/10 12:09:06;;;;;;;2.08;1.50;;;26.40;91.00;;;;;;5098475;28;20104;-64
2022/08/10 12:11:53;;;;;;;3.85;1.85;;;26.30;92.00;;;;;;5098907;28;20088;-64
2022/08/10 12:14:33;;;;;;;3.30;1.35;;;26.40;91.70;;;;;;5094785;28;20049;-64
2022/08/10 12:17:23;;;;;;;3.20;1.42;;;26.40;90.10;;;;;;5095926;28;20134;-67
2022/08/10 12:20:09;;;;;;;6.57;1.58;;;26.40;90.30;;;;;;5111289;28;20482;-65
2022/08/10 12:22:54;;;;;;;5.13;1.33;;;26.50;90.20;;;;;;5111901;28;20116;-65
2022/08/10 12:25:44;;;;;;;6.25;1.60;;;26.60;89.80;;;;;;5111818;28;20051;-65
2022/08/10 12:28:42;;;;;;;3.78;1.70;;;26.60;88.80;;;;;;5098651;28;20047;-68
2022/08/10 12:31:23;;;;;;;5.28;1.77;;;26.70;86.90;;;;;;5096772;28;20093;-65
2022/08/10 12:34:29;;;;;;;4.63;1.70;;;26.80;89.20;;;;;;5095462;28;20047;-65
2022/08/10 12:37:11;;;;;;;5.50;1.40;;;26.80;86.90;;;;;;5110452;28;20063;-64
2022/08/10 12:40:05;;;;;;;6.05;1.83;;;26.90;84.10;;;;;;5111557;28;20058;-64
2022/08/10 12:43:11;;;;;;;2.55;1.20;;;26.80;83.50;;;;;;5111186;28;20701;-64
2022/08/10 12:46:34;;;;;;;3.70;1.67;;;26.80;84.10;;;;;;5098611;28;20048;-65
2022/08/10 12:49:31;;;;;;;7.32;1.90;;;26.70;83.10;;;;;;5111979;28;20039;-65
2022/08/10 12:52:12;;;;;;;13.85;2.55;;;26.80;81.50;;;;;;5075792;28;20063;-67
2022/08/10 12:54:40;;;;;;;16.88;2.72;;;26.80;81.60;;;;;;5112655;28;20135;-66
2022/08/10 12:57:18;;;;;;;3.92;1.50;;;26.70;82.10;;;;;;5111262;28;20048;-65
2022/08/10 12:59:47;;;;;;;13.88;1.63;;;26.80;81.20;;;;;;5110822;28;20070;-64
2022/08/10 13:02:44;;;;;;;5.72;1.63;;;26.80;79.50;;;;;;5112922;28;20378;-64
2022/08/10 13:05:14;;;;;;;4.50;1.35;;;26.90;79.10;;;;;;5113468;28;20051;-64
2022/08/10 13:07:43;;;;;;;6.85;1.70;;;26.80;80.30;;;;;;5098195;28;20410;-65
2022/08/10 13:10:30;;;;;;;4.15;1.80;;;26.80;78.50;;;;;;5101871;28;20043;-65
2022/08/10 13:12:57;;;;;;;5.72;1.50;;;26.80;78.50;;;;;;5097801;28;20051;-65
2022/08/10 13:15:29;;;;;;;4.43;1.80;;;26.80;77.70;;;;;;5097843;28;20054;-65
2022/08/10 13:18:16;;;;;;;9.85;1.90;;;26.90;78.70;;;;;;5087594;28;20051;-65
2022/08/10 13:20:50;;;;;;;5.93;1.65;;;26.90;77.40;;;;;;5107427;28;20109;-66
2022/08/10 13:23:20;;;;;;;7.75;2.30;;;27.00;77.00;;;;;;5097534;28;20047;-66
2022/08/10 13:25:47;;;;;;;4.03;1.75;;;27.00;75.80;;;;;;5115034;28;20051;-65
2022/08/10 13:28:16;;;;;;;6.03;2.17;;;27.00;76.60;;;;;;5097735;28;20051;-65
2022/08/10 13:31:05;;;;;;;5.90;2.10;;;27.00;74.90;;;;;;5080670;28;20075;-70
2022/08/10 13:33:32;;;;;;;5.70;2.00;;;27.00;75.80;;;;;;5094229;28;20117;-64
2022/08/10 13:36:27;;;;;;;3.00;1.45;;;27.10;76.40;;;;;;5094134;28;20153;-65
2022/08/10 13:38:55;;;;;;;6.90;2.22;;;27.10;76.30;;;;;;5094173;28;20052;-65
2022/08/10 13:41:34;;;;;;;3.67;2.00;;;27.00;76.00;;;;;;5094289;28;20054;-65
2022/08/10 13:44:01;;;;;;;;;;;26.90;75.20;;;;;;5094220;28;20486;-64
2022/08/10 13:46:27;;;;;;;12.82;2.33;;;26.80;76.20;;;;;;5094038;28;19920;-65
2022/08/10 13:48:54;;;;;;;9.98;2.25;;;26.90;76.60;;;;;;5110173;28;20043;-65